createdAt,value
2022-09-23T00:01:11.505Z,4.63
2022-09-23T00:03:41.984Z,4.53
2022-09-23T00:06:11.174Z,4.65
2022-09-23T00:08:38.730Z,3.78
2022-09-23T00:11:14.100Z,4.10
2022-09-23T00:13:42.982Z,4.15
2022-09-23T00:16:15.750Z,4.32
2022-09-23T00:18:43.469Z,4.18
2022-09-23T00:21:12.568Z,4.20
2022-09-23T00:23:40.682Z,3.72
2022-09-23T00:26:09.511Z,4.38
2022-09-23T00:28:36.077Z,3.70
2022-09-23T00:31:11.281Z,3.97
2022-09-23T00:33:40.500Z,3.85
2022-09-23T00:36:11.093Z,3.88
2022-09-23T00:38:38.330Z,4.15
2022-09-23T00:41:05.647Z,2.92
2022-09-23T00:43:40.988Z,3.65
2022-09-23T00:46:10.155Z,3.88
2022-09-23T00:48:41.248Z,4.38
2022-09-23T00:51:12.873Z,3.67
2022-09-23T00:53:39.947Z,3.70
2022-09-23T00:56:09.578Z,4.00
2022-09-23T00:58:39.859Z,4.72
2022-09-23T01:01:06.508Z,3.97
2022-09-23T01:03:33.104Z,3.83
2022-09-23T01:05:59.931Z,3.97
2022-09-23T01:08:28.023Z,4.57
2022-09-23T01:11:14.786Z,4.47
2022-09-23T01:13:46.924Z,4.53
2022-09-23T01:16:43.415Z,4.65
2022-09-23T01:19:36.345Z,4.50
2022-09-23T01:22:42.809Z,4.78
2022-09-23T01:25:35.252Z,5.07
2022-09-23T01:29:03.721Z,5.05
2022-09-23T01:31:56.938Z,4.70
2022-09-23T01:34:47.219Z,5.40
2022-09-23T01:38:09.343Z,5.40
2022-09-23T01:41:15.576Z,4.93
2022-09-23T01:43:58.060Z,4.70
2022-09-23T01:46:32.578Z,3.60
2022-09-23T01:58:17.197Z,5.60
2022-09-23T02:00:54.789Z,4.75
2022-09-23T02:03:27.412Z,4.13
2022-09-23T02:08:33.207Z,4.13
2022-09-23T02:11:07.807Z,5.53
2022-09-23T02:13:48.008Z,5.22
2022-09-23T02:16:39.449Z,5.53
2022-09-23T02:19:34.975Z,4.97
2022-09-23T02:22:24.803Z,4.88
2022-09-23T02:24:51.835Z,5.70
2022-09-23T02:27:32.893Z,5.38
2022-09-23T02:30:23.011Z,5.13
2022-09-23T02:33:20.407Z,5.53
2022-09-23T02:36:05.990Z,5.95
2022-09-23T02:38:51.184Z,6.88
2022-09-23T02:41:28.698Z,5.90
2022-09-23T02:44:04.837Z,4.28
2022-09-23T02:46:32.543Z,4.07
2022-09-23T02:49:26.701Z,4.07
2022-09-23T02:51:54.567Z,4.95
2022-09-23T02:54:29.024Z,4.00
2022-09-23T02:56:57.341Z,3.92
2022-09-23T02:59:24.417Z,3.78
2022-09-23T03:02:22.345Z,3.83
2022-09-23T03:05:11.319Z,3.83
2022-09-23T03:08:19.295Z,3.70
2022-09-23T03:11:05.245Z,4.95
2022-09-23T03:13:57.263Z,4.78
2022-09-23T03:16:48.965Z,5.05
2022-09-23T03:19:29.406Z,5.25
2022-09-23T03:22:21.373Z,4.40
2022-09-23T03:24:53.871Z,4.82
2022-09-23T03:27:25.850Z,4.85
2022-09-23T03:29:54.294Z,4.43
2022-09-23T03:32:24.660Z,4.15
2022-09-23T03:34:54.268Z,4.38
2022-09-23T03:37:26.305Z,4.03
2022-09-23T03:40:21.987Z,4.55
2022-09-23T03:42:49.088Z,5.25
2022-09-23T03:45:20.389Z,4.97
2022-09-23T03:47:47.153Z,4.68
2022-09-23T03:50:14.191Z,7.10
2022-09-23T03:52:40.808Z,5.50
2022-09-23T03:55:08.347Z,8.55
2022-09-23T03:57:35.394Z,14.15
2022-09-23T04:00:02.406Z,8.52
2022-09-23T04:02:29.290Z,5.75
2022-09-23T04:04:56.085Z,6.22
2022-09-23T04:07:22.810Z,6.68
2022-09-23T04:09:49.658Z,28.85
2022-09-23T04:12:16.676Z,10.27
2022-09-23T04:14:44.758Z,7.57
2022-09-23T04:17:11.887Z,6.05
2022-09-23T04:19:38.426Z,6.93
2022-09-23T04:22:05.796Z,9.40
2022-09-23T04:24:32.540Z,4.75
2022-09-23T04:26:59.134Z,6.00
2022-09-23T04:29:26.426Z,8.13
2022-09-23T04:31:53.575Z,6.43
2022-09-23T04:34:20.654Z,7.78
2022-09-23T04:36:48.547Z,7.82
2022-09-23T04:39:16.845Z,7.97
2022-09-23T04:41:44.920Z,9.45
2022-09-23T04:44:12.870Z,7.47
2022-09-23T04:46:41.049Z,6.60
2022-09-23T04:49:08.282Z,6.18
2022-09-23T04:51:35.199Z,6.53
2022-09-23T04:54:01.813Z,4.57
2022-09-23T04:56:32.656Z,4.55
2022-09-23T04:59:01.787Z,5.70
2022-09-23T05:01:31.281Z,6.05
2022-09-23T05:04:02.493Z,4.88
2022-09-23T05:06:36.366Z,6.65
2022-09-23T05:09:06.632Z,5.20
2022-09-23T05:11:34.593Z,4.55
2022-09-23T05:14:01.436Z,5.65
2022-09-23T05:16:28.125Z,5.22
2022-09-23T05:18:54.713Z,11.80
2022-09-23T05:21:24.147Z,7.55
2022-09-23T05:23:54.972Z,5.70
2022-09-23T05:26:24.187Z,5.38
2022-09-23T05:28:50.827Z,6.90
2022-09-23T05:31:20.713Z,8.82
2022-09-23T05:33:57.430Z,5.45
2022-09-23T05:36:25.141Z,6.30
2022-09-23T05:38:52.628Z,8.82
2022-09-23T05:41:23.107Z,15.93
2022-09-23T05:43:54.089Z,16.23
2022-09-23T05:46:29.286Z,5.63
2022-09-23T05:49:01.753Z,7.78
2022-09-23T05:51:31.111Z,7.43
2022-09-23T05:53:58.902Z,6.78
2022-09-23T05:56:27.557Z,14.50
2022-09-23T05:58:56.154Z,5.53
2022-09-23T06:01:25.583Z,8.25
2022-09-23T06:03:53.766Z,7.22
2022-09-23T06:06:26.102Z,12.88
2022-09-23T06:08:53.011Z,11.25
2022-09-23T06:11:21.539Z,12.77
2022-09-23T06:13:49.347Z,8.18
2022-09-23T06:16:16.541Z,11.27
2022-09-23T06:18:45.170Z,6.55
2022-09-23T06:21:16.527Z,6.20
2022-09-23T06:23:44.311Z,7.22
2022-09-23T06:26:12.857Z,6.32
2022-09-23T06:28:41.000Z,4.93
2022-09-23T06:31:13.639Z,3.85
2022-09-23T06:33:42.046Z,6.72
2022-09-23T06:36:09.648Z,4.18
2022-09-23T06:38:39.888Z,4.82
2022-09-23T06:41:07.071Z,6.13
2022-09-23T06:43:33.919Z,6.40
2022-09-23T06:46:02.020Z,3.75
2022-09-23T06:48:29.906Z,3.92
2022-09-23T06:51:02.547Z,3.80
2022-09-23T06:53:32.198Z,8.13
2022-09-23T06:56:05.315Z,6.55
2022-09-23T06:58:34.000Z,6.05
2022-09-23T07:01:01.810Z,5.45
2022-09-23T07:03:29.220Z,4.82
2022-09-23T07:05:56.516Z,4.25
2022-09-23T07:08:24.898Z,3.95
2022-09-23T07:10:53.165Z,4.05
2022-09-23T07:13:20.246Z,3.80
2022-09-23T07:15:54.492Z,3.88
2022-09-23T07:18:25.520Z,6.57
2022-09-23T07:20:53.028Z,7.10
2022-09-23T07:23:19.822Z,4.63
2022-09-23T07:25:46.915Z,4.78
2022-09-23T07:28:13.686Z,4.03
2022-09-23T07:30:51.659Z,4.13
2022-09-23T07:33:31.575Z,4.25
2022-09-23T07:35:59.106Z,3.97
2022-09-23T07:38:31.453Z,4.50
2022-09-23T07:41:06.539Z,4.95
2022-09-23T07:43:33.550Z,5.43
2022-09-23T07:46:04.957Z,5.40
2022-09-23T07:48:34.265Z,5.75
2022-09-23T07:51:10.978Z,5.22
2022-09-23T07:53:38.050Z,6.65
2022-09-23T07:56:08.674Z,5.53
2022-09-23T07:58:35.639Z,6.00
2022-09-23T08:01:10.302Z,5.68
2022-09-23T08:03:37.455Z,6.13
2022-09-23T08:06:09.044Z,6.25
2022-09-23T08:08:39.348Z,5.95
2022-09-23T08:11:08.408Z,6.47
2022-09-23T08:13:34.950Z,6.47
2022-09-23T08:16:01.847Z,6.70
2022-09-23T08:18:29.689Z,6.00
2022-09-23T08:20:56.242Z,5.57
2022-09-23T08:23:23.167Z,6.10
2022-09-23T08:25:59.530Z,6.55
2022-09-23T08:28:26.922Z,6.72
2022-09-23T08:30:53.620Z,5.80
2022-09-23T08:33:23.348Z,4.95
2022-09-23T08:35:51.133Z,5.57
2022-09-23T08:38:17.937Z,5.05
2022-09-23T08:40:49.502Z,4.80
2022-09-23T08:43:33.844Z,5.38
2022-09-23T08:46:08.659Z,4.97
2022-09-23T08:48:40.314Z,4.85
2022-09-23T08:51:12.689Z,4.80
2022-09-23T08:53:40.385Z,4.70
2022-09-23T08:56:14.401Z,4.47
2022-09-23T08:59:11.326Z,4.22
2022-09-23T09:01:47.935Z,4.65
2022-09-23T09:04:28.550Z,4.85
2022-09-23T09:07:38.625Z,4.50
2022-09-23T09:10:19.377Z,4.15
2022-09-23T09:13:06.778Z,4.38
2022-09-23T09:15:43.275Z,6.78
2022-09-23T09:18:20.871Z,5.50
2022-09-23T09:21:08.507Z,4.93
2022-09-23T09:23:54.678Z,3.95
2022-09-23T09:26:30.405Z,4.22
2022-09-23T09:29:31.189Z,3.90
2022-09-23T09:35:05.651Z,3.97
2022-09-23T09:37:43.108Z,3.20
2022-09-23T09:40:13.219Z,3.33
2022-09-23T09:42:41.947Z,2.80
2022-09-23T09:45:43.569Z,2.75
2022-09-23T09:48:17.649Z,3.40
2022-09-23T09:50:45.947Z,3.05
2022-09-23T09:53:35.787Z,3.25
2022-09-23T09:56:06.881Z,2.78
2022-09-23T09:58:55.379Z,2.60
2022-09-23T10:01:28.913Z,2.88
2022-09-23T10:03:59.501Z,2.67
2022-09-23T10:06:32.465Z,3.08
2022-09-23T10:09:19.475Z,2.83
2022-09-23T10:12:15.514Z,2.72
2022-09-23T10:14:47.069Z,2.40
2022-09-23T10:17:34.029Z,2.60
2022-09-23T10:20:07.141Z,2.72
2022-09-23T10:22:39.762Z,2.72
2022-09-23T10:25:16.920Z,2.85
2022-09-23T10:27:45.544Z,3.00
2022-09-23T10:30:32.631Z,2.10
2022-09-23T10:32:59.257Z,2.70
2022-09-23T10:35:26.553Z,2.35
2022-09-23T10:37:53.076Z,2.50
2022-09-23T10:41:02.007Z,1.88
2022-09-23T10:44:24.744Z,2.35
2022-09-23T10:47:09.599Z,2.07
2022-09-23T10:50:03.807Z,2.05
2022-09-23T10:53:02.666Z,2.13
2022-09-23T10:55:54.953Z,2.00
2022-09-23T10:58:58.896Z,2.10
2022-09-23T11:01:38.452Z,2.05
2022-09-23T11:04:41.484Z,1.90
2022-09-23T11:13:01.867Z,1.48
2022-09-23T11:16:16.301Z,1.60
2022-09-23T11:19:15.011Z,1.90
2022-09-23T11:45:32.366Z,2.47
2022-09-23T11:48:05.440Z,2.08
2022-09-23T11:50:48.068Z,2.17
2022-09-23T11:56:09.679Z,2.60
2022-09-23T11:58:59.731Z,2.17
2022-09-23T12:01:42.001Z,2.67
2022-09-23T12:04:33.470Z,2.58
2022-09-23T12:07:12.770Z,2.33
2022-09-23T12:09:58.506Z,2.17
2022-09-23T12:13:10.563Z,2.05
2022-09-23T12:16:06.231Z,2.75
2022-09-23T12:19:11.172Z,2.20
2022-09-23T12:21:56.543Z,2.35
2022-09-23T12:24:46.793Z,2.30
2022-09-23T12:27:39.420Z,2.13
2022-09-23T12:30:15.625Z,2.25
2022-09-23T12:32:43.103Z,2.28
2022-09-23T12:35:32.641Z,2.35
2022-09-23T12:38:01.300Z,2.60
2022-09-23T12:40:35.526Z,2.10
2022-09-23T12:43:02.690Z,2.38
2022-09-23T12:45:39.505Z,2.30
2022-09-23T12:48:45.373Z,2.38
2022-09-23T12:51:17.950Z,2.53
2022-09-23T12:54:08.730Z,2.50
2022-09-23T12:56:59.042Z,2.30
2022-09-23T12:59:32.063Z,1.83
2022-09-23T13:02:21.088Z,2.20
2022-09-23T13:05:18.126Z,2.38
2022-09-23T13:07:49.998Z,2.17
2022-09-23T13:10:19.297Z,2.03
2022-09-23T13:12:46.741Z,2.42
2022-09-23T13:15:33.969Z,1.95
2022-09-23T13:19:08.391Z,1.60
2022-09-23T13:22:08.798Z,1.95
2022-09-23T13:25:02.971Z,1.80
2022-09-23T13:27:34.060Z,1.65
2022-09-23T13:30:07.564Z,2.15
2022-09-23T13:32:48.458Z,1.83
2022-09-23T13:35:43.487Z,1.73
2022-09-23T13:38:26.003Z,3.15
2022-09-23T13:43:41.442Z,1.48
2022-09-23T13:46:16.065Z,2.33
2022-09-23T13:48:45.302Z,2.53
2022-09-23T13:51:20.854Z,1.90
2022-09-23T13:53:54.347Z,2.05
2022-09-23T13:56:22.050Z,1.77
2022-09-23T13:58:48.889Z,1.92
2022-09-23T14:01:33.911Z,1.85
2022-09-23T14:04:02.606Z,2.10
2022-09-23T14:06:31.276Z,2.80
2022-09-23T14:09:01.332Z,2.35
2022-09-23T14:11:35.413Z,2.15
2022-09-23T14:14:07.519Z,1.77
2022-09-23T14:19:04.636Z,1.95
2022-09-23T14:21:37.421Z,2.03
2022-09-23T14:24:34.403Z,2.20
2022-09-23T14:27:12.618Z,1.70
2022-09-23T14:29:42.310Z,2.03
2022-09-23T14:32:14.367Z,1.58
2022-09-23T14:35:18.795Z,2.33
2022-09-23T14:38:06.671Z,1.98
2022-09-23T14:40:52.067Z,1.70
2022-09-23T14:43:27.296Z,1.45
2022-09-23T14:45:57.100Z,2.00
2022-09-23T14:48:31.606Z,1.70
2022-09-23T14:51:03.817Z,2.15
2022-09-23T14:53:45.760Z,1.75
2022-09-23T14:56:18.531Z,2.15
2022-09-23T14:58:57.092Z,1.98
2022-09-23T15:01:39.143Z,1.50
2022-09-23T15:04:16.330Z,1.92
2022-09-23T15:06:51.532Z,1.40
2022-09-23T15:09:23.847Z,1.63
2022-09-23T15:14:37.692Z,1.98
2022-09-23T15:17:07.578Z,1.83
2022-09-23T15:19:36.373Z,1.83
2022-09-23T15:22:03.160Z,2.67
2022-09-23T15:24:45.064Z,1.70
2022-09-23T15:27:37.654Z,1.63
2022-09-23T15:30:17.205Z,2.00
2022-09-23T15:32:45.381Z,1.88
2022-09-23T15:35:19.844Z,1.73
2022-09-23T15:37:49.538Z,2.05
2022-09-23T15:40:28.448Z,3.15
2022-09-23T15:42:57.923Z,16.38
2022-09-23T15:46:05.294Z,7.20
2022-09-23T15:48:39.373Z,7.65
2022-09-23T15:51:09.832Z,5.32
2022-09-23T15:53:38.188Z,4.18
2022-09-23T15:56:05.220Z,3.42
2022-09-23T15:58:32.673Z,4.85
2022-09-23T16:01:00.980Z,3.90
2022-09-23T16:03:30.352Z,2.28
2022-09-23T16:06:01.210Z,2.15
2022-09-23T16:08:29.303Z,2.33
2022-09-23T16:10:56.248Z,2.70
2022-09-23T16:13:23.109Z,2.30
2022-09-23T16:15:49.999Z,2.92
2022-09-23T16:18:16.557Z,2.80
2022-09-23T16:20:45.698Z,2.70
2022-09-23T16:23:37.508Z,2.13
2022-09-23T16:26:15.283Z,2.80
2022-09-23T16:28:42.654Z,3.60
2022-09-23T16:31:11.258Z,3.10
2022-09-23T16:33:39.416Z,2.70
2022-09-23T16:36:12.280Z,2.55
2022-09-23T16:38:38.883Z,2.85
2022-09-23T16:41:06.842Z,2.67
2022-09-23T16:43:39.504Z,2.53
2022-09-23T16:46:07.699Z,2.33
2022-09-23T16:48:34.624Z,129.07
2022-09-23T16:51:05.159Z,87.25
2022-09-23T16:53:31.965Z,56.00
2022-09-23T16:55:58.703Z,45.88
2022-09-23T16:58:25.382Z,26.02
2022-09-23T17:01:16.030Z,24.50
2022-09-23T17:03:43.675Z,18.92
2022-09-23T17:06:14.780Z,12.55
2022-09-23T17:08:42.762Z,11.23
2022-09-23T17:11:14.383Z,7.15
2022-09-23T17:13:42.377Z,7.13
2022-09-23T17:16:23.237Z,7.55
2022-09-23T17:18:50.122Z,7.07
2022-09-23T17:21:16.974Z,5.60
2022-09-23T17:23:43.602Z,6.32
2022-09-23T17:26:12.385Z,6.82
2022-09-23T17:28:39.383Z,7.65
2022-09-23T17:31:07.199Z,7.25
2022-09-23T17:33:37.701Z,7.70
2022-09-23T17:36:09.225Z,6.90
2022-09-23T17:38:36.512Z,7.40
2022-09-23T17:41:07.159Z,6.45
2022-09-23T17:43:33.844Z,6.78
2022-09-23T17:46:06.799Z,8.35
2022-09-23T17:48:38.460Z,7.90
2022-09-23T17:51:17.453Z,7.87
2022-09-23T17:53:45.617Z,7.07
2022-09-23T17:56:18.688Z,7.80
2022-09-23T17:58:46.677Z,7.22
2022-09-23T18:01:16.469Z,6.88
2022-09-23T18:03:46.378Z,7.00
2022-09-23T18:06:19.241Z,6.97
2022-09-23T18:08:58.099Z,6.40
2022-09-23T18:11:29.202Z,5.45
2022-09-23T18:14:01.211Z,5.25
2022-09-23T18:16:30.674Z,5.70
2022-09-23T18:18:59.455Z,5.75
2022-09-23T18:21:31.887Z,6.07
2022-09-23T18:26:46.719Z,5.45
2022-09-23T18:29:16.674Z,5.43
2022-09-23T18:31:45.008Z,5.18
2022-09-23T18:34:16.863Z,4.78
2022-09-23T18:36:44.218Z,5.65
2022-09-23T18:39:11.354Z,5.60
2022-09-23T18:41:38.333Z,6.65
2022-09-23T18:44:05.173Z,6.80
2022-09-23T18:46:31.966Z,7.65
2022-09-23T18:49:18.054Z,6.15
2022-09-23T18:51:54.425Z,6.15
2022-09-23T18:54:22.404Z,6.05
2022-09-23T18:56:51.962Z,6.72
2022-09-23T18:59:20.862Z,5.40
2022-09-23T19:01:49.944Z,5.43
2022-09-23T19:04:19.863Z,5.70
2022-09-23T19:06:47.384Z,6.32
2022-09-23T19:09:18.212Z,5.05
2022-09-23T19:11:45.276Z,5.38
2022-09-23T19:14:12.845Z,6.00
2022-09-23T19:16:41.350Z,5.00
2022-09-23T19:19:08.905Z,5.35
2022-09-23T19:21:35.708Z,5.75
2022-09-23T19:24:05.437Z,5.20
2022-09-23T19:26:37.755Z,5.25
2022-09-23T19:29:08.255Z,5.30
2022-09-23T19:31:42.609Z,5.82
2022-09-23T19:34:23.894Z,6.35
2022-09-23T19:36:51.619Z,6.47
2022-09-23T19:39:31.139Z,5.15
2022-09-23T19:41:59.069Z,6.13
2022-09-23T19:44:26.726Z,6.38
2022-09-23T19:46:56.681Z,6.55
2022-09-23T19:49:24.733Z,7.30
2022-09-23T19:51:51.853Z,6.05
2022-09-23T19:54:20.839Z,6.10
2022-09-23T19:56:51.052Z,5.80
2022-09-23T19:59:19.223Z,6.05
2022-09-23T20:01:46.382Z,6.05
2022-09-23T20:04:13.093Z,6.32
2022-09-23T20:06:39.739Z,7.40
2022-09-23T20:09:06.727Z,6.75
2022-09-23T20:11:33.570Z,5.85
2022-09-23T20:14:03.906Z,7.30
2022-09-23T20:16:35.819Z,7.07
2022-09-23T20:19:04.540Z,7.35
2022-09-23T20:21:32.029Z,6.47
2022-09-23T20:23:58.969Z,6.97
2022-09-23T20:26:44.594Z,7.45
2022-09-23T20:29:11.913Z,7.53
2022-09-23T20:31:40.438Z,8.35
2022-09-23T20:34:08.314Z,7.97
2022-09-23T20:36:36.033Z,7.75
2022-09-23T20:39:05.929Z,7.90
2022-09-23T20:41:36.773Z,7.07
2022-09-23T20:44:06.297Z,7.68
2022-09-23T20:46:33.434Z,7.80
2022-09-23T20:49:02.008Z,7.55
2022-09-23T20:51:28.770Z,7.80
2022-09-23T20:53:56.058Z,7.32
2022-09-23T20:56:23.371Z,7.20
2022-09-23T20:58:50.850Z,6.90
2022-09-23T21:01:18.368Z,7.18
2022-09-23T21:03:47.551Z,7.65
2022-09-23T21:06:15.851Z,6.78
2022-09-23T21:08:44.234Z,7.50
2022-09-23T21:11:14.962Z,7.40
2022-09-23T21:13:49.189Z,6.90
2022-09-23T21:16:17.610Z,6.43
2022-09-23T21:18:45.826Z,7.15
2022-09-23T21:21:14.339Z,7.63
2022-09-23T21:23:42.712Z,6.65
2022-09-23T21:26:11.710Z,6.18
2022-09-23T21:28:43.135Z,6.35
2022-09-23T21:31:22.641Z,7.22
2022-09-23T21:33:57.115Z,6.50
2022-09-23T21:36:24.739Z,6.35
2022-09-23T21:38:52.348Z,6.75
2022-09-23T21:41:19.905Z,6.20
2022-09-23T21:43:46.799Z,6.53
2022-09-23T21:46:15.416Z,6.32
2022-09-23T21:48:42.796Z,6.30
2022-09-23T21:51:13.033Z,5.97
2022-09-23T21:53:40.908Z,6.50
2022-09-23T21:56:10.046Z,6.10
2022-09-23T21:58:38.535Z,6.43
2022-09-23T22:01:25.971Z,5.80
2022-09-23T22:03:55.696Z,5.95
2022-09-23T22:06:26.801Z,6.55
2022-09-23T22:08:55.685Z,5.85
2022-09-23T22:11:42.600Z,5.68
2022-09-23T22:14:11.751Z,5.85
2022-09-23T22:16:39.044Z,5.20
2022-09-23T22:19:09.337Z,6.05
2022-09-23T22:21:38.128Z,6.22
2022-09-23T22:24:07.460Z,5.68
2022-09-23T22:26:42.681Z,6.35
2022-09-23T22:29:29.937Z,4.90
2022-09-23T22:32:15.779Z,5.95
2022-09-23T22:34:51.449Z,5.68
2022-09-23T22:37:28.512Z,5.35
2022-09-23T22:39:55.399Z,5.45
2022-09-23T22:42:22.552Z,5.88
2022-09-23T22:44:50.051Z,5.47
2022-09-23T22:47:17.890Z,5.20
2022-09-23T22:49:46.180Z,5.80
2022-09-23T22:52:14.908Z,5.93
2022-09-23T22:54:41.984Z,5.38
2022-09-23T22:57:09.126Z,6.38
2022-09-23T22:59:37.467Z,6.03
2022-09-23T23:02:05.251Z,7.05
2022-09-23T23:04:32.145Z,9.05
2022-09-23T23:06:58.851Z,8.70
2022-09-23T23:09:25.989Z,8.45
2022-09-23T23:11:52.678Z,7.65
2022-09-23T23:14:19.695Z,7.45
2022-09-23T23:16:47.126Z,7.85
2022-09-23T23:19:17.259Z,6.93
2022-09-23T23:21:45.343Z,7.97
2022-09-23T23:24:17.529Z,7.90
2022-09-23T23:26:45.446Z,7.30
2022-09-23T23:29:13.491Z,7.80
2022-09-23T23:31:40.661Z,7.68
2022-09-23T23:34:10.914Z,7.85
2022-09-23T23:36:37.856Z,7.53
2022-09-23T23:39:04.676Z,7.68
2022-09-23T23:41:31.651Z,7.95
2022-09-23T23:43:59.565Z,7.68
2022-09-23T23:46:28.303Z,7.40
2022-09-23T23:48:56.224Z,5.80
2022-09-23T23:51:26.319Z,6.53
2022-09-23T23:53:54.053Z,5.68
2022-09-23T23:56:23.037Z,5.97
2022-09-23T23:59:00.394Z,5.43
